WetterOnline ( https://www.wetteronline.de )

Wetter aktuell Uckermark

Aktuelles Wetter: Angermünde (55m)

6-stündlich | Neueste Meldungen
Ortszeit Temperatur Wetter
Di, 29.11. 1:00 2.6° C bedeckt
Mo, 28.11. 19:00 2.9° C bedeckt
Mo, 28.11. 13:00 4.5° C bedeckt
Mo, 28.11. 7:00 3.2° C bewölkt
Mo, 28.11. 1:00 4.1° C bedeckt
So, 27.11. 19:00 4.5° C bewölkt
So, 27.11. 13:00 7.0° C leicht bewölkt
So, 27.11. 7:00 5.9° C Nebel
Ortszeit Temperatur Wetter
Di, 29.11. 5:00 2.9° C bedeckt
Di, 29.11. 4:50 2.9° C bedeckt
Di, 29.11. 4:40 2.9° C bedeckt
Di, 29.11. 4:30 2.9° C bedeckt
Di, 29.11. 4:20 2.9° C bedeckt
Di, 29.11. 4:10 2.9° C bedeckt
Di, 29.11. 4:00 2.9° C bedeckt
Di, 29.11. 3:30 2.9° C bedeckt
Di, 29.11. 3:00 2.9° C bedeckt
Di, 29.11. 2:30 2.8° C bedeckt
Di, 29.11. 2:00 2.7° C bedeckt
Ortszeit Relative Feuchte Sichtweite
Di, 29.11. 1:00 90% 8 km
Mo, 28.11. 19:00 87% 10 km
Mo, 28.11. 13:00 80% 14 km
Mo, 28.11. 7:00 92% 8 km
Mo, 28.11. 1:00 96% 5.0 km
So, 27.11. 19:00 97% 5.0 km
So, 27.11. 13:00 85% 18 km
So, 27.11. 7:00 99% 0.2 km
Ortszeit Relative Feuchte Sichtweite
Di, 29.11. 5:00 89% 9 km
Di, 29.11. 4:50 89% -
Di, 29.11. 4:40 89% -
Di, 29.11. 4:30 89% 9 km
Di, 29.11. 4:20 89% -
Di, 29.11. 4:10 89% -
Di, 29.11. 4:00 89% 9 km
Di, 29.11. 3:30 89% 9 km
Di, 29.11. 3:00 89% 9 km
Di, 29.11. 2:30 89% 8 km
Di, 29.11. 2:00 91% 8 km
Ortszeit Niederschlagsmenge Niederschlagsart
Di, 29.11. 1:00 0.0 l/m2 in 6 Std. -
Mo, 28.11. 19:00 0.0 l/m2 in 12 Std. -
Mo, 28.11. 13:00 0.0 l/m2 in 6 Std. -
Mo, 28.11. 7:00 0.0 l/m2 in 12 Std. -
Mo, 28.11. 1:00 0.0 l/m2 in 6 Std. -
So, 27.11. 19:00 0.0 l/m2 in 12 Std. -
So, 27.11. 13:00 0.0 l/m2 in 6 Std. -
So, 27.11. 7:00 0.3 l/m2 in 12 Std. Regen
Ortszeit Niederschlagsmenge Niederschlagsart
Di, 29.11. 5:00 0.0 l/m2 in 1 Std. -
Di, 29.11. 4:50 keine Meldung -
Di, 29.11. 4:40 keine Meldung -
Di, 29.11. 4:30 0.0 l/m2 in 1 Std. -
Di, 29.11. 4:20 keine Meldung -
Di, 29.11. 4:10 keine Meldung -
Di, 29.11. 4:00 0.0 l/m2 in 1 Std. -
Di, 29.11. 3:30 0.0 l/m2 in 1 Std. -
Di, 29.11. 3:00 0.0 l/m2 in 1 Std. -
Di, 29.11. 2:30 0.0 l/m2 in 1 Std. -
Di, 29.11. 2:00 0.0 l/m2 in 1 Std. -
Ortszeit Stärke Spitze Richtung
km/h Bft. km/h Grad Sektor
Di, 29.11. 1:00 13 3 26 90° O
Mo, 28.11. 19:00 14 3 40 120° SO
Mo, 28.11. 13:00 17 3 33 130° SO
Mo, 28.11. 7:00 13 3 31 130° SO
Mo, 28.11. 1:00 18 3 32 140° SO
So, 27.11. 19:00 13 3 24 150° SO
So, 27.11. 13:00 14 3 22 170° S
So, 27.11. 7:00 6 1 13 150° SO
Ortszeit Stärke Spitze Richtung
km/h Bft. km/h Grad Sektor
Di, 29.11. 5:00 11 2 22 110° O
Di, 29.11. 4:50 11 2 - 110° O
Di, 29.11. 4:40 14 3 - 110° O
Di, 29.11. 4:30 14 3 22 100° O
Di, 29.11. 4:20 14 3 - 100° O
Di, 29.11. 4:10 14 3 - 100° O
Di, 29.11. 4:00 13 3 20 100° O
Di, 29.11. 3:30 14 3 22 110° O
Di, 29.11. 3:00 14 3 22 110° O
Di, 29.11. 2:30 13 3 22 100° O
Di, 29.11. 2:00 11 2 18 100° O
Ortszeit Untergrenze Bedeckung Gattung
total tief tief mittel hoch
Di, 29.11. 1:00 840 m 8/8 8/8 - - -
Mo, 28.11. 19:00 3300 m 8/8 8/8 - - -
Mo, 28.11. 13:00 3300 m 8/8 8/8 - - -
Mo, 28.11. 7:00 210 m 8/8 7/8 - - -
Mo, 28.11. 1:00 90 m 8/8 8/8 - - -
So, 27.11. 19:00 90 m 8/8 4/8 - - -
So, 27.11. 13:00 210 m 3/8 3/8 - - -
So, 27.11. 7:00 30 m 8/8 8/8 - - -
Ortszeit Bedeckungsgrad in Achtel und Wolkenuntergrenze
Di, 29.11. 5:00 1(330m) 8(900m) 8(3300m)
Di, 29.11. 4:50 1(330m) 8(900m) 8(3300m)
Di, 29.11. 4:40 8
Di, 29.11. 4:30 8(900m) 8(3300m)
Di, 29.11. 4:20 8(900m) 8(3300m)
Di, 29.11. 4:10 8
Di, 29.11. 4:00 3(330m) 8(930m) 8(3300m)
Di, 29.11. 3:30 6(360m) 8(930m) 8(3300m)
Di, 29.11. 3:00 8(900m) 8(3600m)
Di, 29.11. 2:30 8(870m) 8(3900m)
Di, 29.11. 2:00 2(360m) 8(810m)
Ortszeit Luftdruck NN (hPa) Tendenz (hPa in 3 Std.)
Di, 29.11. 1:00 1018 + 0,1
Mo, 28.11. 19:00 1018 - 0,2
Mo, 28.11. 13:00 1018 - 0,9
Mo, 28.11. 7:00 1020 - 1,1
Mo, 28.11. 1:00 1022 - 1,0
So, 27.11. 19:00 1024 - 1,0
So, 27.11. 13:00 1027 - 0,9
So, 27.11. 7:00 1029 0,0
Ortszeit Luftdruck NN (hPa) Tendenz (hPa in 3 Std.)
Di, 29.11. 5:00 1018 + 0,4
Di, 29.11. 4:50 1018 keine Meldung
Di, 29.11. 4:40 1018 keine Meldung
Di, 29.11. 4:30 1018 0,0
Di, 29.11. 4:20 1018 keine Meldung
Di, 29.11. 4:10 1018 keine Meldung
Di, 29.11. 4:00 1018 0,0
Di, 29.11. 3:30 1018 0,0
Di, 29.11. 3:00 1018 + 0,1
Di, 29.11. 2:30 1018 0,0
Di, 29.11. 2:00 1018 0,0
Ortszeit Schneehöhe (cm)
Di, 29.11. 1:00 0
Mo, 28.11. 19:00 0
Mo, 28.11. 13:00 0
Mo, 28.11. 7:00 0
Mo, 28.11. 1:00 0
So, 27.11. 19:00 0
So, 27.11. 13:00 0
So, 27.11. 7:00 0
Ortszeit Schneehöhe (cm)
Di, 29.11. 5:00 0
Di, 29.11. 4:50 0
Di, 29.11. 4:40 0
Di, 29.11. 4:30 0
Di, 29.11. 4:20 0
Di, 29.11. 4:10 0
Di, 29.11. 4:00 0
Di, 29.11. 3:30 0
Di, 29.11. 3:00 0
Di, 29.11. 2:30 0
Di, 29.11. 2:00 0
Link zu dieser Seite / Seite empfehlen

Das Wetter in ...